sensor_id;sensor_type;location;lat;lon;timestamp;pressure;altitude;pressure_sealevel;temperature;humidity
27643;BME280;15053;48.618;10.024;2022-09-20T00:00:41;94692.59;;;8.96;94.13
27643;BME280;15053;48.618;10.024;2022-09-20T00:03:09;94694.94;;;8.97;94.25
27643;BME280;15053;48.618;10.024;2022-09-20T00:05:37;94691.56;;;8.97;93.93
27643;BME280;15053;48.618;10.024;2022-09-20T00:08:07;94693.66;;;8.95;93.85
27643;BME280;15053;48.618;10.024;2022-09-20T00:10:35;94684.81;;;8.90;94.19
27643;BME280;15053;48.618;10.024;2022-09-20T00:13:06;94693.66;;;8.84;93.92
27643;BME280;15053;48.618;10.024;2022-09-20T00:15:33;94686.69;;;8.80;93.80
27643;BME280;15053;48.618;10.024;2022-09-20T00:17:59;94684.88;;;8.75;93.88
27643;BME280;15053;48.618;10.024;2022-09-20T00:20:26;94686.19;;;8.73;93.89
27643;BME280;15053;48.618;10.024;2022-09-20T00:22:53;94686.97;;;8.68;93.87
27643;BME280;15053;48.618;10.024;2022-09-20T00:25:19;94684.13;;;8.65;94.08
27643;BME280;15053;48.618;10.024;2022-09-20T00:27:45;94676.88;;;8.62;93.60
27643;BME280;15053;48.618;10.024;2022-09-20T00:30:12;94679.72;;;8.55;93.79
27643;BME280;15053;48.618;10.024;2022-09-20T00:32:39;94679.22;;;8.53;93.53
27643;BME280;15053;48.618;10.024;2022-09-20T00:35:07;94669.63;;;8.49;93.64
27643;BME280;15053;48.618;10.024;2022-09-20T00:37:34;94673.78;;;8.50;93.40
27643;BME280;15053;48.618;10.024;2022-09-20T00:40:02;94671.69;;;8.47;93.43
27643;BME280;15053;48.618;10.024;2022-09-20T00:42:30;94666.78;;;8.45;93.78
27643;BME280;15053;48.618;10.024;2022-09-20T00:45:01;94666.00;;;8.45;93.51
27643;BME280;15053;48.618;10.024;2022-09-20T00:47:34;94680.53;;;8.46;93.83
27643;BME280;15053;48.618;10.024;2022-09-20T00:52:57;94656.16;;;8.37;93.40
27643;BME280;15053;48.618;10.024;2022-09-20T00:55:25;94679.00;;;8.40;93.19
27643;BME280;15053;48.618;10.024;2022-09-20T00:57:52;94665.75;;;8.31;92.80
27643;BME280;15053;48.618;10.024;2022-09-20T01:00:19;94673.53;;;8.26;92.74
27643;BME280;15053;48.618;10.024;2022-09-20T01:02:48;94669.13;;;8.26;92.99
27643;BME280;15053;48.618;10.024;2022-09-20T01:05:17;94668.88;;;8.28;93.02
27643;BME280;15053;48.618;10.024;2022-09-20T01:07:46;94663.69;;;8.28;93.06
27643;BME280;15053;48.618;10.024;2022-09-20T01:10:13;94651.50;;;8.34;93.08
27643;BME280;15053;48.618;10.024;2022-09-20T01:12:41;94659.00;;;8.35;92.62
27643;BME280;15053;48.618;10.024;2022-09-20T01:15:09;94653.56;;;8.32;93.27
27643;BME280;15053;48.618;10.024;2022-09-20T01:17:38;94668.09;;;8.38;92.95
27643;BME280;15053;48.618;10.024;2022-09-20T01:20:28;94674.81;;;8.39;93.34
27643;BME280;15053;48.618;10.024;2022-09-20T01:25:57;94669.13;;;8.32;92.70
27643;BME280;15053;48.618;10.024;2022-09-20T01:28:30;94674.31;;;8.26;92.86
27643;BME280;15053;48.618;10.024;2022-09-20T01:31:01;94670.16;;;8.25;93.57
27643;BME280;15053;48.618;10.024;2022-09-20T01:33:46;94666.78;;;8.20;93.16
27643;BME280;15053;48.618;10.024;2022-09-20T01:36:23;94665.47;;;8.22;93.43
27643;BME280;15053;48.618;10.024;2022-09-20T01:41:57;94669.09;;;8.21;93.20
27643;BME280;15053;48.618;10.024;2022-09-20T01:47:40;94654.06;;;8.13;94.00
27643;BME280;15053;48.618;10.024;2022-09-20T01:50:31;94664.97;;;8.15;93.42
27643;BME280;15053;48.618;10.024;2022-09-20T01:53:29;94659.00;;;8.15;93.96
27643;BME280;15053;48.618;10.024;2022-09-20T01:56:28;94660.53;;;8.16;94.45
27643;BME280;15053;48.618;10.024;2022-09-20T02:04:45;94661.88;;;8.18;93.71
27643;BME280;15053;48.618;10.024;2022-09-20T02:10:27;94657.97;;;8.21;94.28
27643;BME280;15053;48.618;10.024;2022-09-20T02:13:00;94644.75;;;8.17;94.15
27643;BME280;15053;48.618;10.024;2022-09-20T02:21:27;94655.13;;;8.27;93.83
27643;BME280;15053;48.618;10.024;2022-09-20T02:29:43;94654.06;;;8.23;93.13
27643;BME280;15053;48.618;10.024;2022-09-20T02:32:33;94647.81;;;8.24;93.65
27643;BME280;15053;48.618;10.024;2022-09-20T02:37:49;94644.22;;;8.30;93.27
27643;BME280;15053;48.618;10.024;2022-09-20T02:51:50;94652.53;;;8.38;92.89
27643;BME280;15053;48.618;10.024;2022-09-20T02:54:41;94650.69;;;8.33;92.90
27643;BME280;15053;48.618;10.024;2022-09-20T02:59:56;94659.53;;;8.27;93.11
27643;BME280;15053;48.618;10.024;2022-09-20T03:02:29;94660.06;;;8.29;93.06
27643;BME280;15053;48.618;10.024;2022-09-20T03:05:57;94657.97;;;8.31;93.56
27643;BME280;15053;48.618;10.024;2022-09-20T03:13:21;94661.34;;;8.32;93.82
27643;BME280;15053;48.618;10.024;2022-09-20T03:16:00;94667.06;;;8.34;94.10
27643;BME280;15053;48.618;10.024;2022-09-20T03:18:53;94671.97;;;8.35;93.36
27643;BME280;15053;48.618;10.024;2022-09-20T03:27:42;94679.53;;;8.32;93.55
27643;BME280;15053;48.618;10.024;2022-09-20T03:30:35;94671.47;;;8.28;93.10
27643;BME280;15053;48.618;10.024;2022-09-20T03:36:11;94670.41;;;8.19;92.87
27643;BME280;15053;48.618;10.024;2022-09-20T03:38:54;94677.44;;;8.28;93.63
27643;BME280;15053;48.618;10.024;2022-09-20T03:50:22;94662.91;;;8.38;93.51
27643;BME280;15053;48.618;10.024;2022-09-20T03:53:25;94661.88;;;8.34;93.32
27643;BME280;15053;48.618;10.024;2022-09-20T03:56:10;94661.88;;;8.34;93.48
27643;BME280;15053;48.618;10.024;2022-09-20T03:58:47;94665.25;;;8.29;92.96
27643;BME280;15053;48.618;10.024;2022-09-20T04:01:48;94662.88;;;8.22;93.04
27643;BME280;15053;48.618;10.024;2022-09-20T04:04:27;94661.88;;;8.18;93.20
27643;BME280;15053;48.618;10.024;2022-09-20T04:07:14;94665.50;;;8.12;92.82
27643;BME280;15053;48.618;10.024;2022-09-20T04:09:55;94666.00;;;8.09;92.51
27643;BME280;15053;48.618;10.024;2022-09-20T04:13:10;94663.44;;;8.09;92.46
27643;BME280;15053;48.618;10.024;2022-09-20T04:15:58;94664.44;;;8.08;92.72
27643;BME280;15053;48.618;10.024;2022-09-20T04:18:34;94662.91;;;8.07;93.01
27643;BME280;15053;48.618;10.024;2022-09-20T04:21:11;94666.81;;;8.10;93.18
27643;BME280;15053;48.618;10.024;2022-09-20T04:23:58;94675.34;;;8.10;93.73
27643;BME280;15053;48.618;10.024;2022-09-20T04:26:29;94678.97;;;8.14;93.48
27643;BME280;15053;48.618;10.024;2022-09-20T04:29:09;94675.09;;;8.12;93.33
27643;BME280;15053;48.618;10.024;2022-09-20T04:31:54;94666.81;;;8.10;94.12
27643;BME280;15053;48.618;10.024;2022-09-20T04:34:30;94677.69;;;8.17;94.01
27643;BME280;15053;48.618;10.024;2022-09-20T04:37:25;94673.28;;;8.17;94.11
27643;BME280;15053;48.618;10.024;2022-09-20T04:40:04;94681.56;;;8.19;94.20
27643;BME280;15053;48.618;10.024;2022-09-20T04:43:15;94676.88;;;8.21;94.41
27643;BME280;15053;48.618;10.024;2022-09-20T04:49:02;94674.84;;;8.23;94.41
27643;BME280;15053;48.618;10.024;2022-09-20T05:00:17;94686.25;;;8.32;94.81
27643;BME280;15053;48.618;10.024;2022-09-20T05:08:28;94686.50;;;8.36;95.41
27643;BME280;15053;48.618;10.024;2022-09-20T05:11:36;94688.84;;;8.38;95.72
27643;BME280;15053;48.618;10.024;2022-09-20T05:28:11;94708.56;;;8.49;95.60
27643;BME280;15053;48.618;10.024;2022-09-20T05:30:44;94708.81;;;8.47;95.32
27643;BME280;15053;48.618;10.024;2022-09-20T05:33:27;94714.78;;;8.48;95.93
27643;BME280;15053;48.618;10.024;2022-09-20T05:38:47;94714.78;;;8.48;95.16
27643;BME280;15053;48.618;10.024;2022-09-20T05:41:41;94723.59;;;8.47;95.51
27643;BME280;15053;48.618;10.024;2022-09-20T05:47:18;94721.28;;;8.45;95.29
27643;BME280;15053;48.618;10.024;2022-09-20T05:56:15;94722.56;;;8.48;95.67
27643;BME280;15053;48.618;10.024;2022-09-20T06:01:25;94730.84;;;8.55;95.89
27643;BME280;15053;48.618;10.024;2022-09-20T06:04:18;94728.00;;;8.61;95.88
27643;BME280;15053;48.618;10.024;2022-09-20T06:06:51;94729.31;;;8.64;95.88
27643;BME280;15053;48.618;10.024;2022-09-20T06:15:21;94731.91;;;8.64;96.32
27643;BME280;15053;48.618;10.024;2022-09-20T06:18:16;94733.69;;;8.68;95.78
27643;BME280;15053;48.618;10.024;2022-09-20T06:21:08;94731.38;;;8.67;95.71
27643;BME280;15053;48.618;10.024;2022-09-20T06:23:39;94741.25;;;8.70;95.63
27643;BME280;15053;48.618;10.024;2022-09-20T06:26:09;94743.84;;;8.70;96.07
27643;BME280;15053;48.618;10.024;2022-09-20T06:28:42;94732.91;;;8.63;95.91
27643;BME280;15053;48.618;10.024;2022-09-20T06:31:10;94744.88;;;8.69;95.72
27643;BME280;15053;48.618;10.024;2022-09-20T06:34:04;94738.38;;;8.66;96.11
27643;BME280;15053;48.618;10.024;2022-09-20T06:36:34;94745.38;;;8.66;96.28
27643;BME280;15053;48.618;10.024;2022-09-20T06:42:24;94743.84;;;8.65;96.26
27643;BME280;15053;48.618;10.024;2022-09-20T06:44:53;94747.19;;;8.65;96.15
27643;BME280;15053;48.618;10.024;2022-09-20T06:47:20;94753.19;;;8.66;97.09
27643;BME280;15053;48.618;10.024;2022-09-20T06:49:48;94749.81;;;8.70;96.81
27643;BME280;15053;48.618;10.024;2022-09-20T06:52:17;94754.22;;;8.75;96.77
27643;BME280;15053;48.618;10.024;2022-09-20T06:54:45;94760.97;;;8.81;96.79
27643;BME280;15053;48.618;10.024;2022-09-20T06:57:15;94752.88;;;8.87;96.75
27643;BME280;15053;48.618;10.024;2022-09-20T06:59:43;94746.91;;;8.92;96.50
27643;BME280;15053;48.618;10.024;2022-09-20T07:02:10;94754.19;;;8.95;96.71
27643;BME280;15053;48.618;10.024;2022-09-20T07:04:37;94747.66;;;9.03;96.56
27643;BME280;15053;48.618;10.024;2022-09-20T07:07:05;94756.75;;;9.05;96.45
27643;BME280;15053;48.618;10.024;2022-09-20T07:09:35;94758.56;;;9.05;96.17
27643;BME280;15053;48.618;10.024;2022-09-20T07:12:01;94757.25;;;9.07;96.06
27643;BME280;15053;48.618;10.024;2022-09-20T07:14:28;94758.31;;;9.06;95.73
27643;BME280;15053;48.618;10.024;2022-09-20T07:16:54;94754.94;;;9.06;95.80
27643;BME280;15053;48.618;10.024;2022-09-20T07:19:20;94761.91;;;9.10;95.84
27643;BME280;15053;48.618;10.024;2022-09-20T07:21:48;94756.19;;;9.13;95.47
27643;BME280;15053;48.618;10.024;2022-09-20T07:24:14;94752.03;;;9.12;95.60
27643;BME280;15053;48.618;10.024;2022-09-20T07:26:58;94761.38;;;9.18;95.09
27643;BME280;15053;48.618;10.024;2022-09-20T07:29:25;94762.94;;;9.19;94.90
27643;BME280;15053;48.618;10.024;2022-09-20T07:31:52;94761.34;;;9.28;95.44
27643;BME280;15053;48.618;10.024;2022-09-20T07:34:19;94761.56;;;9.37;94.97
27643;BME280;15053;48.618;10.024;2022-09-20T07:36:49;94767.25;;;9.44;94.89
27643;BME280;15053;48.618;10.024;2022-09-20T07:39:16;94759.72;;;9.42;94.30
27643;BME280;15053;48.618;10.024;2022-09-20T07:41:43;94768.28;;;9.48;94.17
27643;BME280;15053;48.618;10.024;2022-09-20T07:44:17;94771.41;;;9.50;93.74
27643;BME280;15053;48.618;10.024;2022-09-20T07:46:48;94770.59;;;9.55;93.71
27643;BME280;15053;48.618;10.024;2022-09-20T07:49:14;94777.34;;;9.56;93.00
27643;BME280;15053;48.618;10.024;2022-09-20T07:51:41;94781.78;;;9.55;92.97
27643;BME280;15053;48.618;10.024;2022-09-20T07:54:07;94772.66;;;9.58;92.89
27643;BME280;15053;48.618;10.024;2022-09-20T07:56:34;94778.84;;;9.72;93.06
27643;BME280;15053;48.618;10.024;2022-09-20T07:59:00;94776.19;;;9.82;92.50
27643;BME280;15053;48.618;10.024;2022-09-20T08:01:27;94781.63;;;9.85;91.76
27643;BME280;15053;48.618;10.024;2022-09-20T08:03:53;94782.66;;;9.84;91.38
27643;BME280;15053;48.618;10.024;2022-09-20T08:06:21;94778.75;;;9.87;91.19
27643;BME280;15053;48.618;10.024;2022-09-20T08:08:48;94784.69;;;9.92;90.59
27643;BME280;15053;48.618;10.024;2022-09-20T08:11:17;94782.34;;;9.96;90.17
27643;BME280;15053;48.618;10.024;2022-09-20T08:13:48;94788.31;;;10.01;89.78
27643;BME280;15053;48.618;10.024;2022-09-20T08:16:46;94788.00;;;10.13;90.17
27643;BME280;15053;48.618;10.024;2022-09-20T08:19:18;94786.91;;;10.19;89.23
27643;BME280;15053;48.618;10.024;2022-09-20T08:21:46;94794.69;;;10.24;88.33
27643;BME280;15053;48.618;10.024;2022-09-20T08:24:12;94799.59;;;10.31;87.76
27643;BME280;15053;48.618;10.024;2022-09-20T08:26:40;94791.53;;;10.32;87.13
27643;BME280;15053;48.618;10.024;2022-09-20T08:29:07;94803.72;;;10.37;87.00
27643;BME280;15053;48.618;10.024;2022-09-20T08:31:36;94797.19;;;10.39;86.84
27643;BME280;15053;48.618;10.024;2022-09-20T08:34:04;94800.81;;;10.38;86.09
27643;BME280;15053;48.618;10.024;2022-09-20T08:36:33;94806.03;;;10.43;85.67
27643;BME280;15053;48.618;10.024;2022-09-20T08:39:03;94798.72;;;10.45;85.87
27643;BME280;15053;48.618;10.024;2022-09-20T08:41:54;94811.44;;;10.52;84.72
27643;BME280;15053;48.618;10.024;2022-09-20T08:44:26;94809.81;;;10.56;84.57
27643;BME280;15053;48.618;10.024;2022-09-20T08:47:12;94812.38;;;10.61;84.13
27643;BME280;15053;48.618;10.024;2022-09-20T08:49:43;94819.94;;;10.62;83.14
27643;BME280;15053;48.618;10.024;2022-09-20T08:52:17;94805.09;;;10.58;82.33
27643;BME280;15053;48.618;10.024;2022-09-20T08:54:45;94805.88;;;10.58;82.49
27643;BME280;15053;48.618;10.024;2022-09-20T08:57:15;94806.91;;;10.62;82.13
27643;BME280;15053;48.618;10.024;2022-09-20T08:59:43;94815.72;;;10.66;81.63
27643;BME280;15053;48.618;10.024;2022-09-20T09:02:15;94812.56;;;10.70;81.40
27643;BME280;15053;48.618;10.024;2022-09-20T09:04:43;94812.56;;;10.70;80.72
27643;BME280;15053;48.618;10.024;2022-09-20T09:07:12;94814.13;;;10.71;81.28
27643;BME280;15053;48.618;10.024;2022-09-20T09:09:42;94816.19;;;10.74;81.10
27643;BME280;15053;48.618;10.024;2022-09-20T09:12:17;94809.13;;;10.74;81.38
27643;BME280;15053;48.618;10.024;2022-09-20T09:14:44;94822.75;;;10.71;80.71
27643;BME280;15053;48.618;10.024;2022-09-20T09:17:16;94818.75;;;10.79;80.06
27643;BME280;15053;48.618;10.024;2022-09-20T09:19:48;94810.97;;;11.02;79.83
27643;BME280;15053;48.618;10.024;2022-09-20T09:22:30;94811.94;;;11.35;79.12
27643;BME280;15053;48.618;10.024;2022-09-20T09:27:48;94807.25;;;12.03;77.24
27643;BME280;15053;48.618;10.024;2022-09-20T09:30:22;94806.50;;;12.21;76.32
27643;BME280;15053;48.618;10.024;2022-09-20T09:32:48;94802.47;;;12.29;74.58
27643;BME280;15053;48.618;10.024;2022-09-20T09:35:23;94800.41;;;12.26;73.57
27643;BME280;15053;48.618;10.024;2022-09-20T09:37:55;94796.88;;;12.17;73.10
27643;BME280;15053;48.618;10.024;2022-09-20T09:40:23;94797.31;;;12.24;71.60
27643;BME280;15053;48.618;10.024;2022-09-20T09:43:01;94802.69;;;12.32;70.38
27643;BME280;15053;48.618;10.024;2022-09-20T09:50:44;94803.66;;;12.36;68.79
27643;BME280;15053;48.618;10.024;2022-09-20T09:53:21;94806.06;;;12.33;68.35
27643;BME280;15053;48.618;10.024;2022-09-20T09:56:05;94801.91;;;12.32;67.87
27643;BME280;15053;48.618;10.024;2022-09-20T09:58:46;94796.59;;;12.18;67.49
27643;BME280;15053;48.618;10.024;2022-09-20T10:01:33;94788.41;;;12.06;66.05
27643;BME280;15053;48.618;10.024;2022-09-20T10:06:58;94788.00;;;12.18;64.55
27643;BME280;15053;48.618;10.024;2022-09-20T10:09:50;94786.28;;;12.46;65.15
27643;BME280;15053;48.618;10.024;2022-09-20T10:12:59;94787.63;;;12.75;65.28
27643;BME280;15053;48.618;10.024;2022-09-20T10:15:38;94786.38;;;12.73;64.54
27643;BME280;15053;48.618;10.024;2022-09-20T10:20:57;94791.63;;;12.86;64.35
27643;BME280;15053;48.618;10.024;2022-09-20T10:23:31;94793.19;;;12.87;64.19
27643;BME280;15053;48.618;10.024;2022-09-20T10:32:26;94789.09;;;12.81;63.21
27643;BME280;15053;48.618;10.024;2022-09-20T10:37:43;94781.84;;;13.65;61.12
27643;BME280;15053;48.618;10.024;2022-09-20T10:42:47;94794.50;;;13.85;57.18
27643;BME280;15053;48.618;10.024;2022-09-20T10:45:45;94794.63;;;13.67;58.32
27643;BME280;15053;48.618;10.024;2022-09-20T10:48:50;94797.63;;;13.46;57.89
27643;BME280;15053;48.618;10.024;2022-09-20T10:59:44;94810.53;;;12.65;60.58
27643;BME280;15053;48.618;10.024;2022-09-20T11:05:07;94799.78;;;12.34;61.09
27643;BME280;15053;48.618;10.024;2022-09-20T11:07:58;94808.03;;;12.22;61.99
27643;BME280;15053;48.618;10.024;2022-09-20T11:13:48;94804.09;;;12.43;62.88
27643;BME280;15053;48.618;10.024;2022-09-20T11:16:26;94810.41;;;12.56;62.55
27643;BME280;15053;48.618;10.024;2022-09-20T11:19:03;94805.66;;;12.58;62.57
27643;BME280;15053;48.618;10.024;2022-09-20T11:21:40;94806.72;;;12.76;63.16
27643;BME280;15053;48.618;10.024;2022-09-20T11:24:32;94804.53;;;13.29;62.75
27643;BME280;15053;48.618;10.024;2022-09-20T11:27:07;94802.28;;;13.63;61.99
27643;BME280;15053;48.618;10.024;2022-09-20T11:32:21;94804.53;;;13.70;60.23
27643;BME280;15053;48.618;10.024;2022-09-20T11:35:24;94813.66;;;13.45;60.66
27643;BME280;15053;48.618;10.024;2022-09-20T11:38:02;94814.00;;;13.25;60.47
27643;BME280;15053;48.618;10.024;2022-09-20T11:40:42;94811.03;;;12.99;59.82
27643;BME280;15053;48.618;10.024;2022-09-20T11:43:12;94815.25;;;12.81;60.42
27643;BME280;15053;48.618;10.024;2022-09-20T11:45:42;94809.19;;;12.67;60.37
27643;BME280;15053;48.618;10.024;2022-09-20T11:48:20;94806.53;;;12.54;61.41
27643;BME280;15053;48.618;10.024;2022-09-20T11:53:55;94810.22;;;12.34;60.62
27643;BME280;15053;48.618;10.024;2022-09-20T11:56:28;94789.56;;;12.19;61.08
27643;BME280;15053;48.618;10.024;2022-09-20T11:58:58;94796.53;;;12.23;60.37
27643;BME280;15053;48.618;10.024;2022-09-20T12:01:28;94799.06;;;12.28;60.64
27643;BME280;15053;48.618;10.024;2022-09-20T12:04:19;94803.47;;;12.33;61.39
27643;BME280;15053;48.618;10.024;2022-09-20T12:09:55;94794.28;;;12.68;61.74
27643;BME280;15053;48.618;10.024;2022-09-20T12:12:37;94781.34;;;12.76;61.33
27643;BME280;15053;48.618;10.024;2022-09-20T12:15:21;94783.28;;;12.71;61.67
27643;BME280;15053;48.618;10.024;2022-09-20T12:28:45;94775.13;;;14.80;56.58
27643;BME280;15053;48.618;10.024;2022-09-20T12:34:41;94763.34;;;15.39;52.77
27643;BME280;15053;48.618;10.024;2022-09-20T12:39:23;94775.13;;;16.32;51.57
27643;BME280;15053;48.618;10.024;2022-09-20T12:44:38;94767.09;;;16.46;47.51
27643;BME280;15053;48.618;10.024;2022-09-20T12:55:33;94774.63;;;16.99;45.88
27643;BME280;15053;48.618;10.024;2022-09-20T13:00:48;94763.41;;;16.64;46.51
27643;BME280;15053;48.618;10.024;2022-09-20T13:03:33;94758.91;;;16.39;46.98
27643;BME280;15053;48.618;10.024;2022-09-20T13:09:06;94769.88;;;16.07;45.00
27643;BME280;15053;48.618;10.024;2022-09-20T13:11:44;94764.84;;;15.62;45.42
27643;BME280;15053;48.618;10.024;2022-09-20T13:16:56;94766.31;;;15.07;47.58
27643;BME280;15053;48.618;10.024;2022-09-20T13:19:29;94763.41;;;14.86;47.71
27643;BME280;15053;48.618;10.024;2022-09-20T13:22:11;94760.72;;;14.69;48.13
27643;BME280;15053;48.618;10.024;2022-09-20T13:24:41;94759.03;;;14.51;49.25
27643;BME280;15053;48.618;10.024;2022-09-20T13:27:39;94749.34;;;14.15;51.23
27643;BME280;15053;48.618;10.024;2022-09-20T13:30:19;94760.06;;;14.05;52.41
27643;BME280;15053;48.618;10.024;2022-09-20T13:32:47;94769.78;;;13.91;53.26
27643;BME280;15053;48.618;10.024;2022-09-20T13:35:22;94763.75;;;13.91;53.94
27643;BME280;15053;48.618;10.024;2022-09-20T13:38:04;94759.50;;;14.31;53.64
27643;BME280;15053;48.618;10.024;2022-09-20T13:43:03;94763.34;;;14.69;52.07
27643;BME280;15053;48.618;10.024;2022-09-20T13:45:52;94755.19;;;15.01;52.55
27643;BME280;15053;48.618;10.024;2022-09-20T13:48:28;94755.50;;;15.08;52.55
27643;BME280;15053;48.618;10.024;2022-09-20T13:50:55;94754.94;;;14.89;51.97
27643;BME280;15053;48.618;10.024;2022-09-20T13:53:24;94760.06;;;14.63;51.84
27643;BME280;15053;48.618;10.024;2022-09-20T13:56:14;94759.75;;;14.43;52.38
27643;BME280;15053;48.618;10.024;2022-09-20T13:58:41;94760.19;;;14.23;53.09
27643;BME280;15053;48.618;10.024;2022-09-20T14:01:21;94760.84;;;14.06;54.02
27643;BME280;15053;48.618;10.024;2022-09-20T14:03:49;94768.63;;;13.97;54.08
27643;BME280;15053;48.618;10.024;2022-09-20T14:06:15;94761.81;;;13.96;55.11
27643;BME280;15053;48.618;10.024;2022-09-20T14:08:44;94770.44;;;13.97;55.14
27643;BME280;15053;48.618;10.024;2022-09-20T14:11:18;94754.25;;;13.95;55.45
27643;BME280;15053;48.618;10.024;2022-09-20T14:13:50;94766.66;;;14.03;55.51
27643;BME280;15053;48.618;10.024;2022-09-20T14:16:19;94765.66;;;14.12;56.13
27643;BME280;15053;48.618;10.024;2022-09-20T14:18:47;94765.06;;;14.15;56.52
27643;BME280;15053;48.618;10.024;2022-09-20T14:21:20;94770.78;;;14.17;56.86
27643;BME280;15053;48.618;10.024;2022-09-20T14:23:53;94769.31;;;14.25;56.96
27643;BME280;15053;48.618;10.024;2022-09-20T14:26:22;94768.19;;;14.84;57.43
27643;BME280;15053;48.618;10.024;2022-09-20T14:28:49;94757.66;;;15.46;57.01
27643;BME280;15053;48.618;10.024;2022-09-20T14:31:27;94760.91;;;16.08;55.92
27643;BME280;15053;48.618;10.024;2022-09-20T14:33:58;94758.28;;;16.42;54.17
27643;BME280;15053;48.618;10.024;2022-09-20T14:36:28;94770.34;;;16.51;53.25
27643;BME280;15053;48.618;10.024;2022-09-20T14:39:02;94769.75;;;16.72;52.23
27643;BME280;15053;48.618;10.024;2022-09-20T14:44:00;94773.13;;;16.46;51.75
27643;BME280;15053;48.618;10.024;2022-09-20T14:46:32;94767.88;;;16.46;51.02
27643;BME280;15053;48.618;10.024;2022-09-20T14:49:20;94770.19;;;16.22;51.61
27643;BME280;15053;48.618;10.024;2022-09-20T14:51:47;94772.66;;;15.93;52.29
27643;BME280;15053;48.618;10.024;2022-09-20T14:54:27;94772.13;;;15.65;52.19
27643;BME280;15053;48.618;10.024;2022-09-20T14:56:57;94766.75;;;15.40;52.10
27643;BME280;15053;48.618;10.024;2022-09-20T14:59:26;94769.84;;;15.42;52.10
27643;BME280;15053;48.618;10.024;2022-09-20T15:02:07;94771.06;;;15.35;52.21
27643;BME280;15053;48.618;10.024;2022-09-20T15:04:39;94758.47;;;15.15;52.62
27643;BME280;15053;48.618;10.024;2022-09-20T15:07:08;94766.59;;;15.05;53.37
27643;BME280;15053;48.618;10.024;2022-09-20T15:09:38;94770.31;;;15.04;53.86
27643;BME280;15053;48.618;10.024;2022-09-20T15:12:10;94764.63;;;15.11;53.89
27643;BME280;15053;48.618;10.024;2022-09-20T15:14:37;94776.25;;;15.18;53.94
27643;BME280;15053;48.618;10.024;2022-09-20T15:17:06;94773.72;;;15.05;53.51
27643;BME280;15053;48.618;10.024;2022-09-20T15:19:34;94768.25;;;14.93;53.60
27643;BME280;15053;48.618;10.024;2022-09-20T15:22:01;94764.38;;;14.90;54.50
27643;BME280;15053;48.618;10.024;2022-09-20T15:24:27;94767.81;;;14.99;54.48
27643;BME280;15053;48.618;10.024;2022-09-20T15:26:53;94773.41;;;15.06;54.83
27643;BME280;15053;48.618;10.024;2022-09-20T15:29:20;94773.13;;;15.16;55.01
27643;BME280;15053;48.618;10.024;2022-09-20T15:31:47;94762.88;;;15.68;54.52
27643;BME280;15053;48.618;10.024;2022-09-20T15:34:14;94757.38;;;16.64;53.20
27643;BME280;15053;48.618;10.024;2022-09-20T15:36:41;94757.97;;;17.91;50.92
27643;BME280;15053;48.618;10.024;2022-09-20T15:39:08;94743.03;;;19.35;45.70
27643;BME280;15053;48.618;10.024;2022-09-20T15:41:35;94751.22;;;19.42;43.62
27643;BME280;15053;48.618;10.024;2022-09-20T15:44:02;94755.69;;;18.31;44.45
27643;BME280;15053;48.618;10.024;2022-09-20T15:46:29;94756.84;;;18.21;44.95
27643;BME280;15053;48.618;10.024;2022-09-20T15:48:59;94748.78;;;21.21;39.09
27643;BME280;15053;48.618;10.024;2022-09-20T15:51:25;94735.44;;;22.33;37.25
27643;BME280;15053;48.618;10.024;2022-09-20T15:53:58;94733.25;;;25.10;32.73
27643;BME280;15053;48.618;10.024;2022-09-20T15:56:32;94745.75;;;26.55;30.45
27643;BME280;15053;48.618;10.024;2022-09-20T15:59:01;94740.19;;;26.99;29.83
27643;BME280;15053;48.618;10.024;2022-09-20T16:03:59;94741.47;;;24.31;32.78
27643;BME280;15053;48.618;10.024;2022-09-20T16:06:31;94756.59;;;22.65;35.68
27643;BME280;15053;48.618;10.024;2022-09-20T16:08:57;94764.28;;;21.50;37.94
27643;BME280;15053;48.618;10.024;2022-09-20T16:11:23;94765.78;;;20.76;38.85
27643;BME280;15053;48.618;10.024;2022-09-20T16:13:54;94764.50;;;20.06;40.50
27643;BME280;15053;48.618;10.024;2022-09-20T16:16:22;94759.16;;;19.66;41.04
27643;BME280;15053;48.618;10.024;2022-09-20T16:18:49;94756.06;;;19.52;41.39
27643;BME280;15053;48.618;10.024;2022-09-20T16:21:36;94760.19;;;19.29;41.63
27643;BME280;15053;48.618;10.024;2022-09-20T16:24:05;94762.59;;;19.10;41.81
27643;BME280;15053;48.618;10.024;2022-09-20T16:26:32;94767.66;;;19.03;42.47
27643;BME280;15053;48.618;10.024;2022-09-20T16:29:00;94774.84;;;18.81;42.16
27643;BME280;15053;48.618;10.024;2022-09-20T16:34:14;94769.34;;;19.19;41.47
27643;BME280;15053;48.618;10.024;2022-09-20T16:36:48;94762.31;;;20.60;38.77
27643;BME280;15053;48.618;10.024;2022-09-20T16:39:18;94773.25;;;22.46;35.87
27643;BME280;15053;48.618;10.024;2022-09-20T16:41:46;94770.34;;;23.77;33.57
27643;BME280;15053;48.618;10.024;2022-09-20T16:44:14;94770.28;;;22.67;34.71
27643;BME280;15053;48.618;10.024;2022-09-20T16:46:40;94777.44;;;20.47;37.65
27643;BME280;15053;48.618;10.024;2022-09-20T16:49:08;94767.91;;;18.77;40.75
27643;BME280;15053;48.618;10.024;2022-09-20T16:51:38;94777.81;;;17.30;44.04
27643;BME280;15053;48.618;10.024;2022-09-20T16:54:13;94797.09;;;16.28;46.80
27643;BME280;15053;48.618;10.024;2022-09-20T16:56:42;94788.72;;;15.44;48.90
27643;BME280;15053;48.618;10.024;2022-09-20T16:59:10;94801.34;;;14.80;50.95
27643;BME280;15053;48.618;10.024;2022-09-20T17:01:38;94784.13;;;14.30;52.34
27643;BME280;15053;48.618;10.024;2022-09-20T17:04:06;94783.13;;;14.17;52.78
27643;BME280;15053;48.618;10.024;2022-09-20T17:06:35;94802.38;;;13.85;54.43
27643;BME280;15053;48.618;10.024;2022-09-20T17:09:03;94806.16;;;13.52;55.25
27643;BME280;15053;48.618;10.024;2022-09-20T17:11:32;94800.63;;;13.13;57.20
27643;BME280;15053;48.618;10.024;2022-09-20T17:13:59;94816.72;;;12.87;57.83